Time;durP1;ratioP1;P1;durP2;ratioP2;P2;SDS_P1;SDS_P2;PMS_P1;PMS_P2;Temp;Humidity;BMP_temperature;BMP_pressure;BME280_temperature;BME280_humidity;BME280_pressure;Samples;Min_cycle;Max_cycle;Signal;HPM_P1;HPM_P2
2022/06/18 00:03:58;;;;;;;18.38;3.70;;;;;;;;;;10379403;28;20410;-46
2022/06/18 00:08:59;;;;;;;17.25;3.03;;;;;;;;;;10380931;28;20025;-46
2022/06/18 00:13:59;;;;;;;10.45;3.00;;;;;;;;;;10377360;28;20041;-46
2022/06/18 00:19:00;;;;;;;8.43;2.80;;;;;;;;;;10378296;28;20038;-45
2022/06/18 00:24:00;;;;;;;9.80;2.70;;;;;;;;;;10376760;28;20531;-45
2022/06/18 00:29:01;;;;;;;5.93;3.00;;;;;;;;;;10394989;28;20489;-46
2022/06/18 00:34:02;;;;;;;14.10;3.08;;;;;;;;;;10392696;28;20136;-46
2022/06/18 00:39:04;;;;;;;11.02;3.72;;;;;;;;;;10392680;28;20373;-46
2022/06/18 00:44:24;;;;;;;6.13;2.30;;;;;;;;;;10397698;28;20125;-46
2022/06/18 00:49:35;;;;;;;8.45;2.25;;;;;;;;;;10405519;28;20033;-46
2022/06/18 00:55:08;;;;;;;8.68;2.72;;;;;;;;;;10406355;28;20342;-46
2022/06/18 01:00:12;;;;;;;8.52;2.70;;;;;;;;;;10377207;28;20493;-46
2022/06/18 01:05:24;;;;;;;11.18;2.67;;;;;;;;;;10372428;28;20125;-45
2022/06/18 01:10:37;;;;;;;7.72;2.28;;;;;;;;;;10384947;28;20493;-45
2022/06/18 01:15:39;;;;;;;3.80;2.10;;;;;;;;;;10405849;28;20034;-45
2022/06/18 01:20:46;;;;;;;7.32;2.40;;;;;;;;;;10386112;28;20101;-46
2022/06/18 01:25:47;;;;;;;6.57;2.40;;;;;;;;;;10399046;28;20087;-45
2022/06/18 01:30:48;;;;;;;18.17;2.83;;;;;;;;;;10408214;28;20051;-47
2022/06/18 01:35:52;;;;;;;4.65;2.30;;;;;;;;;;10378922;28;20359;-47
2022/06/18 01:46:31;;;;;;;5.75;2.88;;;;;;;;;;10384928;28;20041;-47
2022/06/18 01:51:39;;;;;;;6.18;2.25;;;;;;;;;;10388058;28;20021;-46
2022/06/18 01:56:45;;;;;;;6.30;2.22;;;;;;;;;;10384836;28;20523;-46
2022/06/18 02:01:48;;;;;;;5.97;2.67;;;;;;;;;;10389296;28;20068;-47
2022/06/18 02:06:50;;;;;;;4.75;2.00;;;;;;;;;;10385937;28;20048;-47
2022/06/18 02:11:52;;;;;;;6.50;2.35;;;;;;;;;;10388683;28;20028;-47
2022/06/18 02:16:56;;;;;;;6.68;2.67;;;;;;;;;;10382703;28;20037;-47
2022/06/18 02:21:58;;;;;;;5.35;2.10;;;;;;;;;;10384384;28;20123;-47
2022/06/18 02:26:58;;;;;;;9.77;2.00;;;;;;;;;;10381634;28;20033;-45
2022/06/18 02:32:01;;;;;;;10.65;2.28;;;;;;;;;;10394960;28;20046;-46
2022/06/18 02:37:22;;;;;;;5.30;2.05;;;;;;;;;;10385118;28;20076;-46
2022/06/18 02:42:23;;;;;;;3.08;1.95;;;;;;;;;;10375357;28;20095;-46
2022/06/18 02:47:24;;;;;;;3.60;1.85;;;;;;;;;;10393411;28;20025;-46
2022/06/18 02:52:32;;;;;;;4.82;1.98;;;;;;;;;;10371215;28;20489;-45
2022/06/18 02:57:33;;;;;;;4.22;1.90;;;;;;;;;;10383472;28;20033;-46
2022/06/18 03:02:33;;;;;;;3.67;2.28;;;;;;;;;;10398655;28;20034;-46
2022/06/18 03:07:34;;;;;;;2.50;1.63;;;;;;;;;;10372451;28;20053;-45
2022/06/18 03:12:34;;;;;;;7.50;1.80;;;;;;;;;;10392346;28;20047;-46
2022/06/18 03:17:35;;;;;;;2.47;1.67;;;;;;;;;;10387568;28;20076;-48
2022/06/18 03:22:36;;;;;;;5.90;1.98;;;;;;;;;;10375566;28;20017;-46
2022/06/18 03:27:36;;;;;;;6.53;1.98;;;;;;;;;;10374136;28;20021;-46
2022/06/18 03:32:37;;;;;;;3.47;1.75;;;;;;;;;;10371041;28;20050;-46
2022/06/18 03:37:38;;;;;;;3.83;1.80;;;;;;;;;;10379554;28;20033;-47
2022/06/18 03:42:38;;;;;;;4.95;1.98;;;;;;;;;;10384235;28;20022;-48
2022/06/18 03:47:39;;;;;;;2.67;1.80;;;;;;;;;;10378147;28;20469;-47
2022/06/18 03:52:40;;;;;;;4.05;1.92;;;;;;;;;;10380246;28;20377;-46
2022/06/18 03:57:40;;;;;;;4.93;1.85;;;;;;;;;;10380640;28;20385;-46
2022/06/18 04:02:41;;;;;;;9.27;1.83;;;;;;;;;;10392283;28;20179;-46
2022/06/18 04:07:42;;;;;;;5.90;2.08;;;;;;;;;;10395224;28;20025;-46
2022/06/18 04:12:42;;;;;;;5.35;2.20;;;;;;;;;;10404528;28;20109;-47
2022/06/18 04:17:43;;;;;;;13.25;2.20;;;;;;;;;;10406443;28;20029;-45
2022/06/18 04:22:43;;;;;;;3.63;1.90;;;;;;;;;;10391708;28;20025;-46
2022/06/18 04:27:45;;;;;;;7.90;1.85;;;;;;;;;;10392493;28;20444;-45
2022/06/18 04:32:45;;;;;;;4.15;1.98;;;;;;;;;;10385488;28;20381;-47
2022/06/18 04:37:48;;;;;;;8.27;2.35;;;;;;;;;;10382624;28;20030;-46
2022/06/18 04:42:49;;;;;;;6.50;2.53;;;;;;;;;;10383972;28;20042;-46
2022/06/18 04:47:49;;;;;;;4.38;1.67;;;;;;;;;;10404117;28;20536;-46
2022/06/18 04:52:50;;;;;;;9.18;2.15;;;;;;;;;;10383620;28;20030;-46
2022/06/18 04:57:51;;;;;;;13.02;1.80;;;;;;;;;;10375873;28;20496;-46
2022/06/18 05:02:52;;;;;;;3.05;1.67;;;;;;;;;;10406252;28;20374;-46
2022/06/18 05:07:54;;;;;;;2.97;1.52;;;;;;;;;;10395744;28;20029;-46
2022/06/18 05:12:54;;;;;;;3.25;1.80;;;;;;;;;;10404577;28;20057;-47
2022/06/18 05:17:55;;;;;;;13.20;2.47;;;;;;;;;;10377603;28;20037;-46
2022/06/18 05:22:55;;;;;;;3.22;1.85;;;;;;;;;;10381450;28;20158;-50
2022/06/18 05:27:56;;;;;;;6.47;2.13;;;;;;;;;;10380223;28;20036;-47
2022/06/18 05:32:57;;;;;;;3.13;1.77;;;;;;;;;;10386063;28;20042;-46
2022/06/18 05:37:58;;;;;;;15.25;2.03;;;;;;;;;;10396198;28;20237;-47
2022/06/18 05:43:04;;;;;;;6.13;2.17;;;;;;;;;;10429467;28;20024;-46
2022/06/18 05:48:06;;;;;;;5.15;1.90;;;;;;;;;;10388960;28;20030;-47
2022/06/18 05:53:07;;;;;;;2.40;1.60;;;;;;;;;;10396841;28;20021;-46
2022/06/18 05:58:10;;;;;;;4.38;2.03;;;;;;;;;;10394618;28;20041;-47
2022/06/18 06:03:11;;;;;;;3.35;1.80;;;;;;;;;;10400365;28;20056;-47
2022/06/18 06:08:13;;;;;;;2.28;1.95;;;;;;;;;;10387808;28;20049;-46
2022/06/18 06:13:14;;;;;;;4.40;1.90;;;;;;;;;;10385116;28;20041;-45
2022/06/18 06:18:17;;;;;;;6.22;2.00;;;;;;;;;;10392010;28;20073;-46
2022/06/18 06:23:19;;;;;;;13.57;1.85;;;;;;;;;;10384478;28;20108;-45
2022/06/18 06:28:27;;;;;;;9.57;2.50;;;;;;;;;;10390072;28;20485;-48
2022/06/18 06:33:28;;;;;;;18.60;2.72;;;;;;;;;;10394032;28;20069;-46
2022/06/18 06:38:29;;;;;;;11.20;2.53;;;;;;;;;;10381188;28;20045;-46
2022/06/18 06:43:30;;;;;;;7.53;2.72;;;;;;;;;;10392980;28;20022;-48
2022/06/18 06:48:30;;;;;;;10.02;2.50;;;;;;;;;;10384084;28;20084;-45
2022/06/18 06:53:31;;;;;;;9.30;2.17;;;;;;;;;;10381500;28;20025;-46
2022/06/18 06:58:32;;;;;;;11.15;2.88;;;;;;;;;;10375927;28;20321;-46
2022/06/18 07:03:33;;;;;;;3.58;1.98;;;;;;;;;;10399178;28;20030;-45
2022/06/18 07:08:46;;;;;;;9.73;2.30;;;;;;;;;;10399241;28;20033;-48
2022/06/18 07:13:46;;;;;;;5.55;2.22;;;;;;;;;;10387988;28;20030;-47
2022/06/18 07:18:49;;;;;;;4.53;1.83;;;;;;;;;;10378552;28;20029;-46
2022/06/18 07:23:51;;;;;;;5.45;2.28;;;;;;;;;;10384363;28;20413;-46
2022/06/18 07:28:51;;;;;;;16.67;1.90;;;;;;;;;;10371879;28;20103;-48
2022/06/18 07:33:52;;;;;;;8.60;2.42;;;;;;;;;;10389307;28;20072;-45
2022/06/18 07:38:53;;;;;;;28.02;2.90;;;;;;;;;;10369590;28;20407;-46
2022/06/18 07:43:55;;;;;;;6.60;3.45;;;;;;;;;;10372868;28;20034;-44
2022/06/18 07:48:56;;;;;;;12.70;4.07;;;;;;;;;;10390401;28;20470;-46
2022/06/18 07:53:57;;;;;;;9.00;3.90;;;;;;;;;;10388278;28;20037;-46
2022/06/18 07:58:58;;;;;;;11.60;3.80;;;;;;;;;;10378246;28;20032;-46
2022/06/18 08:03:59;;;;;;;22.30;4.93;;;;;;;;;;10383371;28;20029;-46
2022/06/18 08:09:00;;;;;;;18.05;5.05;;;;;;;;;;10383190;28;20049;-48
2022/06/18 08:14:00;;;;;;;8.90;4.78;;;;;;;;;;10380843;28;20069;-47
2022/06/18 08:19:01;;;;;;;20.02;4.90;;;;;;;;;;10376599;28;20029;-49
2022/06/18 08:24:12;;;;;;;16.83;4.00;;;;;;;;;;10372676;28;20470;-54
2022/06/18 08:29:21;;;;;;;16.92;4.20;;;;;;;;;;10371002;28;20115;-57
2022/06/18 08:34:23;;;;;;;16.23;4.47;;;;;;;;;;10376512;28;20078;-58
2022/06/18 08:39:23;;;;;;;20.00;4.40;;;;;;;;;;10368263;28;20053;-57
2022/06/18 08:44:59;;;;;;;10.32;4.10;;;;;;;;;;10389857;28;20032;-58
2022/06/18 08:50:39;;;;;;;6.72;3.47;;;;;;;;;;10382358;28;20088;-53
2022/06/18 08:56:19;;;;;;;13.32;3.58;;;;;;;;;;10391173;28;20181;-54
2022/06/18 09:01:45;;;;;;;5.30;3.10;;;;;;;;;;10395368;28;20018;-54
2022/06/18 09:07:19;;;;;;;4.60;3.30;;;;;;;;;;10381166;28;20508;-54
2022/06/18 09:12:32;;;;;;;4.15;2.90;;;;;;;;;;10390875;28;20029;-58
2022/06/18 09:18:07;;;;;;;6.22;3.25;;;;;;;;;;10398657;28;20033;-57
2022/06/18 09:23:28;;;;;;;7.03;3.67;;;;;;;;;;10376206;28;20071;-57
2022/06/18 09:28:39;;;;;;;8.40;3.22;;;;;;;;;;10381731;28;20049;-56
2022/06/18 09:33:55;;;;;;;9.02;3.67;;;;;;;;;;10378041;28;20042;-56
2022/06/18 09:39:08;;;;;;;7.60;3.28;;;;;;;;;;10395010;28;20029;-57
2022/06/18 09:44:49;;;;;;;11.25;3.75;;;;;;;;;;10384025;28;20133;-56
2022/06/18 09:49:50;;;;;;;3.63;3.30;;;;;;;;;;10392750;28;20536;-57
2022/06/18 09:55:21;;;;;;;4.10;2.90;;;;;;;;;;10383331;28;20033;-55
2022/06/18 10:00:30;;;;;;;10.07;3.20;;;;;;;;;;10384251;28;20095;-55
2022/06/18 10:11:13;;;;;;;7.50;3.15;;;;;;;;;;10393867;28;20041;-50
2022/06/18 10:16:51;;;;;;;4.90;3.10;;;;;;;;;;10394045;28;20037;-57
2022/06/18 10:22:00;;;;;;;5.75;2.75;;;;;;;;;;10402536;28;20072;-57
2022/06/18 10:27:39;;;;;;;4.65;3.05;;;;;;;;;;10387301;28;20055;-60
2022/06/18 10:33:12;;;;;;;14.52;3.60;;;;;;;;;;10393133;28;20160;-59
2022/06/18 10:38:55;;;;;;;37.70;5.18;;;;;;;;;;10383220;28;20075;-56
2022/06/18 10:44:11;;;;;;;29.20;5.15;;;;;;;;;;10407345;28;20034;-55
2022/06/18 10:49:12;;;;;;;27.80;4.13;;;;;;;;;;10380574;28;20551;-51
2022/06/18 10:54:13;;;;;;;11.90;3.30;;;;;;;;;;10404993;28;20079;-49
2022/06/18 10:59:13;;;;;;;16.35;3.00;;;;;;;;;;10402666;28;20061;-51
2022/06/18 11:04:28;;;;;;;10.10;3.22;;;;;;;;;;10397021;28;20056;-46
2022/06/18 11:09:32;;;;;;;5.82;3.20;;;;;;;;;;10372055;28;20030;-55
2022/06/18 11:14:41;;;;;;;9.85;3.13;;;;;;;;;;10394045;28;20094;-50
2022/06/18 11:19:48;;;;;;;8.93;2.97;;;;;;;;;;10403821;28;20022;-48
2022/06/18 11:24:58;;;;;;;20.73;3.57;;;;;;;;;;10398196;28;20029;-49
2022/06/18 11:30:04;;;;;;;14.48;3.45;;;;;;;;;;10399126;28;20497;-60
2022/06/18 11:35:08;;;;;;;13.85;3.58;;;;;;;;;;10392781;28;20075;-53
2022/06/18 11:40:11;;;;;;;16.20;3.92;;;;;;;;;;10416825;28;20065;-60
2022/06/18 11:45:41;;;;;;;20.35;4.03;;;;;;;;;;10399453;28;20464;-56
2022/06/18 11:51:26;;;;;;;8.43;3.55;;;;;;;;;;10381148;28;20152;-62
2022/06/18 11:57:01;;;;;;;6.50;3.05;;;;;;;;;;10376473;28;20062;-63
2022/06/18 12:02:16;;;;;;;15.52;3.22;;;;;;;;;;10390073;28;20037;-63
2022/06/18 12:07:50;;;;;;;8.02;3.13;;;;;;;;;;10378411;28;20025;-63
2022/06/18 12:13:28;;;;;;;6.45;3.17;;;;;;;;;;10375816;28;20081;-59
2022/06/18 12:19:02;;;;;;;6.80;3.13;;;;;;;;;;10376353;28;20045;-61
2022/06/18 12:24:19;;;;;;;6.22;2.85;;;;;;;;;;10405443;28;20040;-58
2022/06/18 12:29:37;;;;;;;9.48;3.20;;;;;;;;;;10404040;28;20106;-61
2022/06/18 12:34:59;;;;;;;6.18;3.22;;;;;;;;;;10387639;28;20033;-61
2022/06/18 12:40:02;;;;;;;5.05;2.60;;;;;;;;;;10380506;28;20041;-59
2022/06/18 12:45:10;;;;;;;8.98;2.50;;;;;;;;;;10388898;28;20041;-61
2022/06/18 12:50:56;;;;;;;5.20;2.90;;;;;;;;;;10384339;28;20037;-58
2022/06/18 12:56:29;;;;;;;7.15;2.90;;;;;;;;;;10377960;28;20033;-62
2022/06/18 13:02:12;;;;;;;5.60;2.67;;;;;;;;;;10398277;28;20034;-62
2022/06/18 13:07:20;;;;;;;8.07;2.30;;;;;;;;;;10403132;28;20029;-60
2022/06/18 13:12:40;;;;;;;;;;;;;;;;;;10392100;28;20073;-62
2022/06/18 13:17:58;;;;;;;6.18;2.58;;;;;;;;;;10394813;28;19928;-61
2022/06/18 13:22:59;;;;;;;11.05;3.00;;;;;;;;;;10398832;28;20527;-62
2022/06/18 13:28:30;;;;;;;7.97;2.80;;;;;;;;;;10409709;28;20041;-64
2022/06/18 13:33:43;;;;;;;8.50;2.72;;;;;;;;;;10426688;28;20135;-66
2022/06/18 13:39:13;;;;;;;9.63;2.80;;;;;;;;;;10410211;28;20033;-56
2022/06/18 13:44:45;;;;;;;7.80;2.70;;;;;;;;;;10395113;28;20040;-52
2022/06/18 13:50:01;;;;;;;5.50;2.65;;;;;;;;;;10401007;28;20496;-59
2022/06/18 13:55:01;;;;;;;4.88;2.50;;;;;;;;;;10404895;28;20151;-57
2022/06/18 14:00:04;;;;;;;4.63;2.53;;;;;;;;;;10397043;28;20052;-60
2022/06/18 14:05:18;;;;;;;11.80;2.60;;;;;;;;;;10389791;28;20052;-59
2022/06/18 14:10:26;;;;;;;6.20;2.40;;;;;;;;;;10406886;28;20038;-59
2022/06/18 14:15:32;;;;;;;8.18;2.50;;;;;;;;;;10392729;28;20162;-58
2022/06/18 14:20:39;;;;;;;10.82;3.15;;;;;;;;;;10395803;28;20045;-60
2022/06/18 14:25:46;;;;;;;7.95;2.90;;;;;;;;;;10400852;28;20025;-60
2022/06/18 14:30:54;;;;;;;6.88;2.72;;;;;;;;;;10412354;28;20068;-60
2022/06/18 14:36:23;;;;;;;5.53;2.63;;;;;;;;;;10413492;28;20036;-60
2022/06/18 14:41:36;;;;;;;8.02;2.50;;;;;;;;;;10398815;28;20428;-54
2022/06/18 14:47:01;;;;;;;10.77;3.60;;;;;;;;;;10418515;28;20416;-56
2022/06/18 14:52:06;;;;;;;10.65;3.40;;;;;;;;;;10403024;28;20583;-58
2022/06/18 14:57:39;;;;;;;5.35;2.50;;;;;;;;;;10375626;28;20034;-55
2022/06/18 15:02:59;;;;;;;21.63;3.33;;;;;;;;;;10412844;28;20128;-66
2022/06/18 16:09:10;;;;;;;4.07;2.25;;;;;;;;;;10442335;28;20625;-48
2022/06/18 16:14:10;;;;;;;6.68;2.30;;;;;;;;;;10428953;28;20029;-50
2022/06/18 16:19:13;;;;;;;3.37;2.13;;;;;;;;;;10443199;28;20029;-56
2022/06/18 16:24:36;;;;;;;11.00;2.00;;;;;;;;;;10443689;28;20497;-49
2022/06/18 16:29:58;;;;;;;11.30;2.33;;;;;;;;;;10428961;28;20120;-55
2022/06/18 16:35:10;;;;;;;3.03;2.20;;;;;;;;;;10434234;28;20064;-51
2022/06/18 16:40:13;;;;;;;2.90;2.38;;;;;;;;;;10420853;28;20049;-49
2022/06/18 16:45:16;;;;;;;6.55;2.08;;;;;;;;;;10436870;28;20083;-48
2022/06/18 16:50:20;;;;;;;3.17;2.03;;;;;;;;;;10431014;28;20056;-47
2022/06/18 16:55:32;;;;;;;3.05;2.10;;;;;;;;;;10422457;28;20032;-49
2022/06/18 17:00:33;;;;;;;4.28;2.17;;;;;;;;;;10425773;28;20400;-47
2022/06/18 17:05:39;;;;;;;4.47;2.30;;;;;;;;;;10416118;28;20084;-48
2022/06/18 17:10:45;;;;;;;23.13;4.68;;;;;;;;;;10423227;28;20026;-50
2022/06/18 17:15:46;;;;;;;19.15;4.70;;;;;;;;;;10401394;28;20044;-48
2022/06/18 17:20:51;;;;;;;14.63;3.45;;;;;;;;;;10386172;28;20052;-47
2022/06/18 17:31:16;;;;;;;9.70;3.00;;;;;;;;;;10394465;28;20026;-49
2022/06/18 17:36:38;;;;;;;7.95;3.15;;;;;;;;;;10389097;28;20032;-48
2022/06/18 17:41:39;;;;;;;8.40;2.92;;;;;;;;;;10391139;28;20072;-51
2022/06/18 17:46:41;;;;;;;9.20;3.03;;;;;;;;;;10410366;28;20048;-48
2022/06/18 17:51:43;;;;;;;14.77;3.78;;;;;;;;;;10387990;28;20521;-49
2022/06/18 17:56:43;;;;;;;8.85;2.85;;;;;;;;;;10376084;28;20026;-48
2022/06/18 18:01:52;;;;;;;9.27;3.08;;;;;;;;;;10370203;28;20026;-48
2022/06/18 18:06:56;;;;;;;6.20;2.95;;;;;;;;;;10382797;28;20184;-49
2022/06/18 18:11:56;;;;;;;7.20;2.80;;;;;;;;;;10408876;28;20032;-50
2022/06/18 18:16:58;;;;;;;8.73;2.80;;;;;;;;;;10407669;28;20536;-48
2022/06/18 18:21:59;;;;;;;8.40;2.95;;;;;;;;;;10393458;28;20032;-51
2022/06/18 18:27:15;;;;;;;6.82;2.75;;;;;;;;;;10378428;28;20029;-50
2022/06/18 18:32:18;;;;;;;9.25;3.00;;;;;;;;;;10382794;28;20537;-50
2022/06/18 18:37:19;;;;;;;6.35;2.70;;;;;;;;;;10404833;28;20033;-49
2022/06/18 18:42:20;;;;;;;5.88;2.92;;;;;;;;;;10384042;28;20347;-49
2022/06/18 18:47:20;;;;;;;6.95;3.00;;;;;;;;;;10381788;28;20096;-49
2022/06/18 18:52:21;;;;;;;6.25;2.65;;;;;;;;;;10381468;28;20474;-48
2022/06/18 18:57:22;;;;;;;8.15;2.90;;;;;;;;;;10381572;28;20026;-50
2022/06/18 19:02:22;;;;;;;6.57;3.00;;;;;;;;;;10382550;28;20026;-48
2022/06/18 19:07:23;;;;;;;5.07;2.38;;;;;;;;;;10397463;28;20056;-49
2022/06/18 19:17:43;;;;;;;3.90;2.55;;;;;;;;;;10384462;28;20025;-49
2022/06/18 19:22:43;;;;;;;4.72;2.38;;;;;;;;;;10391860;28;20390;-48
2022/06/18 19:27:44;;;;;;;4.00;2.38;;;;;;;;;;10391841;28;20029;-47
2022/06/18 19:32:45;;;;;;;4.85;2.40;;;;;;;;;;10367348;28;20105;-48
2022/06/18 19:37:46;;;;;;;3.60;2.20;;;;;;;;;;10381568;28;20036;-49
2022/06/18 19:42:47;;;;;;;4.75;2.25;;;;;;;;;;10388413;28;20675;-48
2022/06/18 19:47:48;;;;;;;7.00;2.80;;;;;;;;;;10386452;28;20049;-48
2022/06/18 19:52:49;;;;;;;5.82;2.55;;;;;;;;;;10379014;28;20029;-52
2022/06/18 19:57:49;;;;;;;4.00;2.40;;;;;;;;;;10382392;28;20033;-48
2022/06/18 20:02:53;;;;;;;6.38;2.50;;;;;;;;;;10386942;28;20045;-48
2022/06/18 20:07:54;;;;;;;4.32;2.33;;;;;;;;;;10391954;28;20041;-50
2022/06/18 20:12:54;;;;;;;5.38;2.50;;;;;;;;;;10390581;28;20021;-49
2022/06/18 20:17:57;;;;;;;7.68;2.70;;;;;;;;;;10377962;28;20128;-48
2022/06/18 20:22:58;;;;;;;2.88;2.10;;;;;;;;;;10385958;28;20018;-49
2022/06/18 20:27:59;;;;;;;5.20;2.10;;;;;;;;;;10376172;28;20038;-48
2022/06/18 20:33:01;;;;;;;3.42;2.30;;;;;;;;;;10373636;28;20478;-47
2022/06/18 20:38:03;;;;;;;3.22;2.30;;;;;;;;;;10377368;28;20025;-46
2022/06/18 20:43:03;;;;;;;7.45;2.40;;;;;;;;;;10389384;28;20038;-51
2022/06/18 20:48:04;;;;;;;7.10;2.80;;;;;;;;;;10374524;28;20548;-47
2022/06/18 20:53:06;;;;;;;8.10;2.75;;;;;;;;;;10389589;28;20156;-47
2022/06/18 20:58:07;;;;;;;7.03;2.42;;;;;;;;;;10370773;28;20034;-48
2022/06/18 21:03:11;;;;;;;7.32;3.00;;;;;;;;;;10389998;28;20030;-46
2022/06/18 21:08:12;;;;;;;6.53;2.38;;;;;;;;;;10386569;28;20056;-47
2022/06/18 21:13:14;;;;;;;9.32;2.78;;;;;;;;;;10379072;28;20484;-47
2022/06/18 21:18:15;;;;;;;7.45;2.63;;;;;;;;;;10382298;28;20030;-47
2022/06/18 21:23:16;;;;;;;4.85;2.17;;;;;;;;;;10379934;28;20108;-46
2022/06/18 21:28:17;;;;;;;4.43;2.20;;;;;;;;;;10391025;28;20075;-47
2022/06/18 21:38:36;;;;;;;4.95;2.40;;;;;;;;;;10376034;28;20401;-47
2022/06/18 21:43:37;;;;;;;6.03;2.55;;;;;;;;;;10392684;28;20030;-48
2022/06/18 21:48:38;;;;;;;6.20;2.47;;;;;;;;;;10394442;28;20033;-49
2022/06/18 21:53:39;;;;;;;16.33;2.50;;;;;;;;;;10387727;28;20049;-45
2022/06/18 21:58:43;;;;;;;14.60;2.83;;;;;;;;;;10385667;28;20033;-47
2022/06/18 22:03:43;;;;;;;16.52;2.83;;;;;;;;;;10387259;28;20045;-45
2022/06/18 22:08:45;;;;;;;18.23;2.80;;;;;;;;;;10377614;28;20515;-45
2022/06/18 22:19:05;;;;;;;18.70;3.08;;;;;;;;;;10393866;28;20033;-46
2022/06/18 22:24:06;;;;;;;10.48;2.45;;;;;;;;;;10385690;28;20033;-46
2022/06/18 22:29:06;;;;;;;16.95;2.80;;;;;;;;;;10386182;28;20034;-46
2022/06/18 22:34:07;;;;;;;7.43;2.15;;;;;;;;;;10390574;28;20107;-46
2022/06/18 22:39:07;;;;;;;16.63;2.67;;;;;;;;;;10384383;28;20030;-46
2022/06/18 22:44:20;;;;;;;7.03;2.35;;;;;;;;;;10400119;28;20029;-50
2022/06/18 22:49:30;;;;;;;8.98;2.47;;;;;;;;;;10385100;28;20500;-47
2022/06/18 22:54:43;;;;;;;8.88;2.95;;;;;;;;;;10387583;28;20032;-47
2022/06/18 22:59:44;;;;;;;12.57;2.58;;;;;;;;;;10377925;28;20034;-47
2022/06/18 23:04:45;;;;;;;5.80;2.45;;;;;;;;;;10368679;28;20050;-47
2022/06/18 23:09:46;;;;;;;7.63;2.50;;;;;;;;;;10380264;28;20037;-46
2022/06/18 23:14:54;;;;;;;14.20;2.72;;;;;;;;;;10382901;28;20041;-46
2022/06/18 23:20:13;;;;;;;5.07;2.33;;;;;;;;;;10377583;28;20060;-46
2022/06/18 23:25:14;;;;;;;7.25;2.30;;;;;;;;;;10389014;28;20025;-49
2022/06/18 23:30:16;;;;;;;7.13;2.33;;;;;;;;;;10370494;28;20362;-46
2022/06/18 23:35:19;;;;;;;10.57;2.50;;;;;;;;;;10374528;28;20042;-47
2022/06/18 23:40:35;;;;;;;6.05;2.05;;;;;;;;;;10374178;28;20055;-46
2022/06/18 23:45:36;;;;;;;7.53;2.25;;;;;;;;;;10373660;28;20106;-47
2022/06/18 23:50:38;;;;;;;7.15;2.22;;;;;;;;;;10377254;28;20024;-47
2022/06/18 23:55:46;;;;;;;5.32;2.25;;;;;;;;;;10367523;28;20275;-46
